createdAt,value
2022-12-18T00:00:32.618Z,99721.06
2022-12-18T00:03:36.433Z,99720.22
2022-12-18T00:06:39.112Z,99725.50
2022-12-18T00:09:41.947Z,99730.78
2022-12-18T00:12:44.418Z,99735.22
2022-12-18T00:15:47.294Z,99742.31
2022-12-18T00:18:51.828Z,99750.22
2022-12-18T00:21:54.847Z,99757.22
2022-12-18T00:24:58.036Z,99762.53
2022-12-18T00:28:00.786Z,99772.25
2022-12-18T00:31:12.076Z,99772.25
2022-12-18T00:34:15.030Z,99785.44
2022-12-18T00:37:20.178Z,99789.78
2022-12-18T00:40:26.822Z,99789.84
2022-12-18T00:43:30.131Z,99788.00
2022-12-18T00:46:37.163Z,99795.03
2022-12-18T00:49:40.057Z,99794.13
2022-12-18T00:52:43.635Z,99795.03
2022-12-18T00:55:47.166Z,99802.06
2022-12-18T00:58:50.354Z,99802.91
2022-12-18T01:01:53.171Z,99807.25
2022-12-18T01:04:56.588Z,99808.16
2022-12-18T01:07:59.507Z,99811.63
2022-12-18T01:11:18.481Z,99823.13
2022-12-18T01:14:21.012Z,99820.41
2022-12-18T01:17:23.861Z,99824.75
2022-12-18T01:20:26.553Z,99832.72
2022-12-18T01:23:29.437Z,99832.66
2022-12-18T01:26:32.095Z,99824.75
2022-12-18T01:29:35.009Z,99831.84
2022-12-18T01:32:38.710Z,99832.72
2022-12-18T01:35:43.116Z,99835.31
2022-12-18T01:38:46.422Z,99835.28
2022-12-18T01:42:04.373Z,99844.06
2022-12-18T01:45:10.100Z,99838.81
2022-12-18T01:48:12.977Z,99843.88
2022-12-18T01:51:15.714Z,99850.06
2022-12-18T01:54:19.088Z,99849.88
2022-12-18T01:57:21.994Z,99854.16
2022-12-18T02:00:26.248Z,99865.63
2022-12-18T02:03:29.146Z,99865.53
2022-12-18T02:06:37.628Z,99862.88
2022-12-18T02:09:57.826Z,99870.72
2022-12-18T02:13:22.171Z,99875.00
2022-12-18T02:16:32.169Z,99873.25
2022-12-18T02:20:07.189Z,99863.41
2022-12-18T02:23:53.825Z,99883.78
2022-12-18T02:27:04.360Z,99888.94
2022-12-18T02:30:08.199Z,99878.25
2022-12-18T02:33:14.791Z,99898.59
2022-12-18T02:36:19.575Z,99903.75
2022-12-18T02:39:26.497Z,99906.31
2022-12-18T02:42:30.693Z,99905.28
2022-12-18T02:45:34.164Z,99908.81
2022-12-18T02:48:37.043Z,99907.13
2022-12-18T02:51:52.113Z,99908.06
2022-12-18T02:55:03.621Z,99913.47
2022-12-18T02:58:35.915Z,99917.78
2022-12-18T03:01:58.812Z,99920.34
2022-12-18T03:05:07.354Z,99921.19
2022-12-18T03:08:15.785Z,99902.44
2022-12-18T03:11:40.317Z,99923.75
2022-12-18T03:14:44.992Z,99928.00
2022-12-18T03:18:17.089Z,99931.53
2022-12-18T03:21:23.412Z,99885.69
2022-12-18T03:24:29.170Z,99928.78
2022-12-18T03:27:34.091Z,99925.75
2022-12-18T03:30:42.526Z,99930.72
2022-12-18T03:33:52.454Z,99950.16
2022-12-18T03:36:56.460Z,99957.03
2022-12-18T03:39:59.434Z,99954.94
2022-12-18T03:43:11.547Z,99937.59
2022-12-18T03:46:59.509Z,99964.06
2022-12-18T03:50:19.321Z,99968.22
2022-12-18T03:53:25.461Z,99968.03
2022-12-18T03:56:31.161Z,99969.50
2022-12-18T03:59:36.514Z,99971.19
2022-12-18T04:02:44.317Z,99980.56
2022-12-18T04:05:50.099Z,99986.50
2022-12-18T04:08:53.643Z,99981.16
2022-12-18T04:11:57.335Z,99989.72
2022-12-18T04:15:00.031Z,99994.81
2022-12-18T04:18:03.540Z,99989.44
2022-12-18T04:21:08.077Z,99992.84
2022-12-18T04:24:11.109Z,99998.03
2022-12-18T04:27:14.159Z,99998.88
2022-12-18T04:30:17.779Z,100005.69
2022-12-18T04:33:21.002Z,100003.91
2022-12-18T04:36:24.169Z,100005.56
2022-12-18T04:39:27.016Z,100015.12
2022-12-18T04:42:30.129Z,100013.16
2022-12-18T04:45:33.417Z,100019.97
2022-12-18T04:48:36.998Z,100026.66
2022-12-18T04:51:39.750Z,100024.78
2022-12-18T04:54:42.534Z,100029.94
2022-12-18T04:57:45.023Z,100021.59
2022-12-18T05:00:47.849Z,100042.94
2022-12-18T05:03:51.665Z,100038.31
2022-12-18T05:06:54.434Z,100045.16
2022-12-18T05:09:56.962Z,100053.78
2022-12-18T05:13:01.182Z,100055.38
2022-12-18T05:16:04.165Z,100064.91
2022-12-18T05:19:06.981Z,100070.91
2022-12-18T05:22:10.060Z,100065.34
2022-12-18T05:25:12.846Z,100071.37
2022-12-18T05:28:15.295Z,100067.63
2022-12-18T05:31:18.146Z,100071.22
2022-12-18T05:34:20.859Z,100073.78
2022-12-18T05:37:23.902Z,100071.13
2022-12-18T05:40:26.479Z,100084.09
2022-12-18T05:43:30.767Z,100086.81
2022-12-18T05:46:33.371Z,100086.59
2022-12-18T05:49:36.290Z,100096.19
2022-12-18T05:52:38.798Z,100092.47
2022-12-18T05:55:42.407Z,100099.53
2022-12-18T05:58:45.985Z,100088.97
2022-12-18T06:01:49.128Z,100079.78
2022-12-18T06:04:52.024Z,100101.28
2022-12-18T06:07:54.730Z,100107.34
2022-12-18T06:10:57.616Z,100111.41
2022-12-18T06:14:00.713Z,100114.72
2022-12-18T06:17:03.742Z,100120.69
2022-12-18T06:20:07.942Z,100129.44
2022-12-18T06:23:10.819Z,100108.09
2022-12-18T06:26:14.490Z,100129.69
2022-12-18T06:29:17.233Z,100127.78
2022-12-18T06:32:19.782Z,100124.34
2022-12-18T06:35:22.474Z,100137.66
2022-12-18T06:38:25.427Z,100142.91
2022-12-18T06:41:28.211Z,100146.66
2022-12-18T06:44:30.714Z,100146.81
2022-12-18T06:47:33.651Z,100149.56
2022-12-18T06:50:36.457Z,100156.63
2022-12-18T06:53:40.102Z,100162.66
2022-12-18T06:56:43.045Z,100169.69
2022-12-18T06:59:45.856Z,100160.56
2022-12-18T07:02:48.495Z,100174.12
2022-12-18T07:05:51.357Z,100180.06
2022-12-18T07:08:55.088Z,100185.31
2022-12-18T07:11:57.798Z,100187.94
2022-12-18T07:15:00.593Z,100196.63
2022-12-18T07:18:03.606Z,100204.72
2022-12-18T07:21:07.726Z,100199.63
2022-12-18T07:24:10.498Z,100205.12
2022-12-18T07:27:12.937Z,100213.09
2022-12-18T07:30:16.481Z,100216.69
2022-12-18T07:33:19.209Z,100219.63
2022-12-18T07:36:22.077Z,100225.00
2022-12-18T07:39:24.724Z,100233.19
2022-12-18T07:42:33.440Z,100253.63
2022-12-18T07:45:36.086Z,100247.53
2022-12-18T07:48:38.953Z,100251.22
2022-12-18T07:51:41.527Z,100254.88
2022-12-18T07:54:44.512Z,100255.00
2022-12-18T07:57:51.432Z,100264.16
2022-12-18T08:00:55.524Z,100255.50
2022-12-18T08:03:58.565Z,100253.28
2022-12-18T08:07:01.248Z,100267.72
2022-12-18T08:10:04.523Z,100277.13
2022-12-18T08:13:08.889Z,100277.34
2022-12-18T08:16:13.761Z,100275.78
2022-12-18T08:19:16.262Z,100278.88
2022-12-18T08:22:19.069Z,100280.13
2022-12-18T08:25:21.571Z,100281.47
2022-12-18T08:28:24.674Z,100290.97
2022-12-18T08:31:28.914Z,100295.06
2022-12-18T08:34:31.790Z,100291.37
2022-12-18T08:37:34.702Z,100299.34
2022-12-18T08:40:37.605Z,100295.72
2022-12-18T08:43:59.307Z,100288.47
2022-12-18T08:47:02.171Z,100300.44
2022-12-18T08:50:05.085Z,100302.03
2022-12-18T08:53:08.331Z,100310.69
2022-12-18T08:56:11.012Z,100305.19
2022-12-18T08:59:19.335Z,100299.34
2022-12-18T09:02:22.374Z,100314.97
2022-12-18T09:05:25.368Z,100318.31
2022-12-18T09:08:28.831Z,100311.72
2022-12-18T09:11:33.022Z,100323.91
2022-12-18T09:14:35.507Z,100328.97
2022-12-18T09:17:38.306Z,100340.03
2022-12-18T09:20:41.152Z,100332.22
2022-12-18T09:23:44.634Z,100343.81
2022-12-18T09:26:47.745Z,100340.56
2022-12-18T09:29:50.795Z,100340.28
2022-12-18T09:32:53.425Z,100346.16
2022-12-18T09:35:56.339Z,100335.13
2022-12-18T09:39:02.625Z,100347.06
2022-12-18T09:42:20.619Z,100342.78
2022-12-18T09:45:23.774Z,100340.31
2022-12-18T09:48:29.636Z,100340.75
2022-12-18T09:51:43.297Z,100336.63
2022-12-18T09:54:51.596Z,100342.41
2022-12-18T09:57:57.028Z,100350.97
2022-12-18T10:01:00.025Z,100345.59
2022-12-18T10:04:03.535Z,100337.09
2022-12-18T10:07:29.319Z,100338.31
2022-12-18T10:10:40.962Z,100330.69
2022-12-18T10:13:48.041Z,100333.38
2022-12-18T10:17:12.756Z,100334.28
2022-12-18T10:20:22.280Z,100329.38
2022-12-18T10:23:34.987Z,100328.50
2022-12-18T10:26:37.662Z,100289.75
2022-12-18T10:29:40.705Z,100325.44
2022-12-18T10:32:43.879Z,100322.19
2022-12-18T10:35:48.654Z,100311.37
2022-12-18T10:38:51.189Z,100322.84
2022-12-18T10:42:11.274Z,100320.72
2022-12-18T10:45:18.695Z,100268.94
2022-12-18T10:48:22.886Z,100324.34
2022-12-18T10:51:34.432Z,100320.75
2022-12-18T10:54:37.488Z,100318.16
2022-12-18T10:57:42.504Z,100319.91
2022-12-18T11:00:45.370Z,100327.22
2022-12-18T11:03:50.850Z,100325.56
2022-12-18T11:07:04.479Z,100330.28
2022-12-18T11:10:16.238Z,100327.84
2022-12-18T11:13:22.700Z,100332.31
2022-12-18T11:16:25.377Z,100325.50
2022-12-18T11:19:39.331Z,100318.47
2022-12-18T11:22:41.942Z,100309.72
2022-12-18T11:25:56.351Z,100312.28
2022-12-18T11:29:11.121Z,100313.25
2022-12-18T11:32:28.031Z,100316.91
2022-12-18T11:35:52.458Z,100321.28
2022-12-18T11:38:56.774Z,100319.50
2022-12-18T11:42:11.361Z,100307.12
2022-12-18T11:45:14.213Z,100303.38
2022-12-18T11:48:26.299Z,100300.56
2022-12-18T11:51:58.653Z,100306.00
2022-12-18T11:55:02.891Z,100300.50
2022-12-18T11:58:31.575Z,100300.50
2022-12-18T12:01:56.008Z,100300.38
2022-12-18T12:05:18.556Z,100298.69
2022-12-18T12:08:24.208Z,100301.37
2022-12-18T12:12:20.572Z,100300.50
2022-12-18T12:15:45.003Z,100301.34
2022-12-18T12:19:15.400Z,100299.62
2022-12-18T12:22:30.304Z,100301.44
2022-12-18T12:25:44.102Z,100302.53
2022-12-18T12:29:01.439Z,100298.19
2022-12-18T12:32:12.083Z,100301.06
2022-12-18T12:35:33.333Z,100292.09
2022-12-18T12:38:52.312Z,100296.69
2022-12-18T12:42:14.090Z,100299.25
2022-12-18T12:45:27.858Z,100302.81
2022-12-18T12:48:45.551Z,100299.22
2022-12-18T12:51:53.588Z,100310.78
2022-12-18T12:54:57.796Z,100310.59
2022-12-18T12:58:12.537Z,100316.91
2022-12-18T13:01:53.185Z,100332.72
2022-12-18T13:05:04.540Z,100334.94
2022-12-18T13:08:11.079Z,100342.37
2022-12-18T13:12:06.119Z,100345.59
2022-12-18T13:15:35.847Z,100340.19
2022-12-18T13:18:50.360Z,100346.38
2022-12-18T13:21:57.019Z,100337.38
2022-12-18T13:25:00.555Z,100350.62
2022-12-18T13:28:09.335Z,100352.72
2022-12-18T13:31:16.546Z,100351.91
2022-12-18T13:34:27.684Z,100355.56
2022-12-18T13:37:41.927Z,100366.28
2022-12-18T13:40:48.006Z,100364.88
2022-12-18T13:43:55.776Z,100374.97
2022-12-18T13:46:58.587Z,100370.97
2022-12-18T13:50:03.454Z,100384.94
2022-12-18T13:53:06.552Z,100386.41
2022-12-18T13:56:10.124Z,100379.06
2022-12-18T13:59:17.095Z,100373.28
2022-12-18T14:02:26.629Z,100382.87
2022-12-18T14:05:35.361Z,100378.19
2022-12-18T14:08:41.516Z,100382.28
2022-12-18T14:11:50.761Z,100392.78
2022-12-18T14:14:55.284Z,100389.69
2022-12-18T14:18:22.943Z,100391.31
2022-12-18T14:21:30.579Z,100393.13
2022-12-18T14:24:33.870Z,100387.53
2022-12-18T14:27:38.473Z,100380.25
2022-12-18T14:30:46.489Z,100377.94
2022-12-18T14:33:49.389Z,100383.78
2022-12-18T14:36:57.119Z,100388.56
2022-12-18T14:40:10.879Z,100390.69
2022-12-18T14:43:14.549Z,100390.84
2022-12-18T14:46:44.618Z,100401.81
2022-12-18T14:49:47.789Z,100411.25
2022-12-18T14:52:50.582Z,100410.84
2022-12-18T14:55:53.408Z,100407.78
2022-12-18T14:58:59.710Z,100424.19
2022-12-18T15:02:12.070Z,100433.97
2022-12-18T15:05:14.690Z,100426.69
2022-12-18T15:08:47.615Z,100425.81
2022-12-18T15:11:51.378Z,100429.16
2022-12-18T15:14:54.230Z,100437.13
2022-12-18T15:18:08.537Z,100440.72
2022-12-18T15:21:12.838Z,100448.16
2022-12-18T15:24:28.787Z,100448.72
2022-12-18T15:27:36.880Z,100455.03
2022-12-18T15:30:39.743Z,100456.00
2022-12-18T15:34:02.688Z,100456.41
2022-12-18T15:37:05.509Z,100456.88
2022-12-18T15:40:13.638Z,100454.63
2022-12-18T15:43:35.742Z,100459.75
2022-12-18T15:46:38.911Z,100457.00
2022-12-18T15:49:42.837Z,100457.63
2022-12-18T15:52:48.918Z,100467.25
2022-12-18T15:56:10.094Z,100477.75
2022-12-18T15:59:16.073Z,100480.03
2022-12-18T16:02:23.713Z,100492.16
2022-12-18T16:05:28.019Z,100500.78
2022-12-18T16:08:31.244Z,100502.16
2022-12-18T16:11:39.036Z,100505.50
2022-12-18T16:14:41.897Z,100497.72
2022-12-18T16:17:45.823Z,100513.75
2022-12-18T16:20:51.078Z,100522.72
2022-12-18T16:23:54.208Z,100525.13
2022-12-18T16:27:00.317Z,100532.09
2022-12-18T16:30:04.060Z,100532.66
2022-12-18T16:33:07.542Z,100530.75
2022-12-18T16:36:11.335Z,100528.75
2022-12-18T16:39:14.040Z,100529.38
2022-12-18T16:42:21.149Z,100529.31
2022-12-18T16:45:24.633Z,100534.41
2022-12-18T16:48:27.793Z,100524.22
2022-12-18T16:51:30.704Z,100521.50
2022-12-18T16:54:35.180Z,100540.47
2022-12-18T16:57:37.984Z,100540.81
2022-12-18T17:00:41.222Z,100549.75
2022-12-18T17:03:44.828Z,100546.00
2022-12-18T17:06:52.028Z,100546.06
2022-12-18T17:09:54.839Z,100549.13
2022-12-18T17:12:57.979Z,100555.78
2022-12-18T17:16:05.231Z,100547.53
2022-12-18T17:19:12.223Z,100543.22
2022-12-18T17:22:18.082Z,100535.31
2022-12-18T17:25:21.095Z,100531.75
2022-12-18T17:28:25.887Z,100537.88
2022-12-18T17:31:30.642Z,100534.22
2022-12-18T17:34:33.502Z,100533.00
2022-12-18T17:37:36.317Z,100531.19
2022-12-18T17:40:45.907Z,100534.72
2022-12-18T17:43:53.577Z,100541.69
2022-12-18T17:46:56.537Z,100538.00
2022-12-18T17:49:59.423Z,100547.66
2022-12-18T17:53:02.717Z,100548.47
2022-12-18T17:56:06.407Z,100532.56
2022-12-18T17:59:10.948Z,100537.63
2022-12-18T18:02:14.176Z,100541.03
2022-12-18T18:05:17.258Z,100542.00
2022-12-18T18:08:20.662Z,100544.25
2022-12-18T18:11:43.674Z,100543.13
2022-12-18T18:14:46.475Z,100544.09
2022-12-18T18:17:49.463Z,100536.91
2022-12-18T18:20:52.435Z,100535.16
2022-12-18T18:24:01.047Z,100535.94
2022-12-18T18:27:03.555Z,100543.66
2022-12-18T18:30:07.356Z,100551.09
2022-12-18T18:33:11.998Z,100537.44
2022-12-18T18:36:15.359Z,100523.50
2022-12-18T18:39:18.483Z,100540.69
2022-12-18T18:42:22.059Z,100541.25
2022-12-18T18:45:28.045Z,100550.62
2022-12-18T18:48:33.418Z,100553.88
2022-12-18T18:51:39.698Z,100543.75
2022-12-18T18:55:03.833Z,100559.72
2022-12-18T18:58:05.354Z,100559.72
2022-12-18T19:01:12.548Z,100572.72
2022-12-18T19:04:15.432Z,100574.84
2022-12-18T19:07:22.575Z,100579.00
2022-12-18T19:10:33.558Z,100583.00
2022-12-18T19:13:36.625Z,100598.62
2022-12-18T19:16:39.833Z,100602.31
2022-12-18T19:19:43.322Z,100600.22
2022-12-18T19:22:55.354Z,100613.94
2022-12-18T19:26:27.523Z,100612.12
2022-12-18T19:29:32.119Z,100617.22
2022-12-18T19:32:35.497Z,100619.66
2022-12-18T19:35:39.455Z,100627.47
2022-12-18T19:38:44.791Z,100624.66
2022-12-18T19:41:48.486Z,100621.91
2022-12-18T19:44:53.828Z,100626.87
2022-12-18T19:47:59.735Z,100625.56
2022-12-18T19:51:18.817Z,100641.88
2022-12-18T19:54:22.270Z,100642.09
2022-12-18T19:57:25.075Z,100646.06
2022-12-18T20:00:28.078Z,100654.28
2022-12-18T20:03:42.822Z,100651.25
2022-12-18T20:06:51.334Z,100648.47
2022-12-18T20:10:01.447Z,100655.53
2022-12-18T20:13:08.275Z,100652.41
2022-12-18T20:16:12.409Z,100648.88
2022-12-18T20:19:15.872Z,100649.03
2022-12-18T20:22:19.174Z,100648.94
2022-12-18T20:25:21.909Z,100654.28
2022-12-18T20:28:25.918Z,100665.94
2022-12-18T20:31:29.086Z,100666.12
2022-12-18T20:34:31.962Z,100662.16
2022-12-18T20:37:34.940Z,100659.59
2022-12-18T20:40:42.212Z,100653.91
2022-12-18T20:43:45.578Z,100605.31
2022-12-18T20:46:48.792Z,100659.69
2022-12-18T20:49:51.456Z,100656.47
2022-12-18T20:52:54.229Z,100662.69
2022-12-18T20:55:56.732Z,100672.59
2022-12-18T20:59:00.589Z,100671.00
2022-12-18T21:02:03.373Z,100671.31
2022-12-18T21:05:06.824Z,100672.19
2022-12-18T21:08:09.992Z,100682.03
2022-12-18T21:11:40.079Z,100688.53
2022-12-18T21:14:44.200Z,100691.37
2022-12-18T21:17:47.074Z,100673.53
2022-12-18T21:20:49.932Z,100690.78
2022-12-18T21:23:52.869Z,100685.50
2022-12-18T21:26:55.550Z,100669.34
2022-12-18T21:29:58.517Z,100689.34
2022-12-18T21:33:01.014Z,100698.22
2022-12-18T21:36:05.716Z,100696.56
2022-12-18T21:39:09.429Z,100693.81
2022-12-18T21:42:31.463Z,100685.31
2022-12-18T21:45:34.238Z,100675.66
2022-12-18T21:48:40.212Z,100666.63
2022-12-18T21:51:42.806Z,100672.25
2022-12-18T21:54:45.815Z,100664.06
2022-12-18T21:57:49.110Z,100677.78
2022-12-18T22:00:52.173Z,100672.50
2022-12-18T22:03:55.044Z,100661.88
2022-12-18T22:06:57.655Z,100676.91
2022-12-18T22:10:04.602Z,100649.41
2022-12-18T22:13:08.025Z,100637.91
2022-12-18T22:16:10.943Z,100634.59
2022-12-18T22:19:14.172Z,100652.69
2022-12-18T22:22:17.791Z,100663.38
2022-12-18T22:25:20.249Z,100659.16
2022-12-18T22:28:41.784Z,100664.72
2022-12-18T22:31:44.612Z,100660.50
2022-12-18T22:34:47.762Z,100656.97
2022-12-18T22:37:50.265Z,100657.94
2022-12-18T22:40:53.024Z,100654.37
2022-12-18T22:43:55.743Z,100664.25
2022-12-18T22:47:06.943Z,100667.84
2022-12-18T22:50:12.297Z,100670.56
2022-12-18T22:53:15.210Z,100679.44
2022-12-18T22:56:21.328Z,100673.25
2022-12-18T22:59:25.005Z,100669.94
2022-12-18T23:02:27.641Z,100675.06
2022-12-18T23:05:31.349Z,100673.47
2022-12-18T23:08:34.167Z,100680.53
2022-12-18T23:11:37.009Z,100677.00
2022-12-18T23:14:39.486Z,100681.53
2022-12-18T23:17:42.253Z,100676.19
2022-12-18T23:20:44.964Z,100678.66
2022-12-18T23:23:48.973Z,100680.50
2022-12-18T23:26:51.478Z,100644.34
2022-12-18T23:29:54.423Z,100682.16
2022-12-18T23:32:59.225Z,100677.78
2022-12-18T23:36:02.489Z,100678.66
2022-12-18T23:39:05.327Z,100662.59
2022-12-18T23:42:08.267Z,100685.97
2022-12-18T23:45:16.595Z,100667.59
2022-12-18T23:48:21.228Z,100674.69
2022-12-18T23:51:25.651Z,100678.13
2022-12-18T23:54:33.486Z,100671.97
2022-12-18T23:57:36.434Z,100673.56
